Bon Ami, Texas
Current Conditions -  °F | °C
As of 6:35 PM on Monday 24 Nov 2014 (Local Time) from KJAS Reporting Station
Clear Clear  
Wind Chill: 48°   Ceiling: Unl
Heat Index: 48°   Visibility: 10mi
Dew Point: 45°   Wind: 0mph
Humidity: 89%   Direction: NA
Pressure: 30.07"   Gusts: NA
Location:  30.7133°N, 93.9985°W
Report Text: KJAS 250035Z AUTO 00000KT 10SM CLR 09/07 A3007 RMK AO2 T00890071
Loading
Personal Weather Stations






























Interactive Weather Map New forecast layout! Learn more

10-Day Weather Forecast

Advertisements
Track Severe Weather on mobile